createdAt,value
2023-02-13T00:01:07.997Z,81.82
2023-02-13T00:06:29.470Z,81.78
2023-02-13T00:11:31.184Z,81.88
2023-02-13T00:16:34.125Z,81.76
2023-02-13T00:21:35.412Z,81.54
2023-02-13T00:26:36.745Z,81.33
2023-02-13T00:31:38.813Z,81.37
2023-02-13T00:36:40.106Z,81.05
2023-02-13T00:42:41.088Z,81.37
2023-02-13T00:49:02.159Z,81.43
2023-02-13T00:55:23.122Z,81.79
2023-02-13T01:00:46.785Z,81.72
2023-02-13T01:05:48.927Z,81.97
2023-02-13T01:10:50.503Z,81.83
2023-02-13T01:15:52.229Z,82.12
2023-02-13T01:21:57.384Z,82.12
2023-02-13T01:28:18.385Z,82.07
2023-02-13T01:34:39.554Z,82.21
2023-02-13T01:41:00.474Z,82.20
2023-02-13T01:46:29.390Z,82.33
2023-02-13T01:52:30.641Z,82.40
2023-02-13T01:58:51.639Z,82.40
2023-02-13T02:05:12.633Z,82.31
2023-02-13T02:11:33.827Z,82.26
2023-02-13T02:17:54.807Z,82.25
2023-02-13T02:23:31.728Z,82.43
2023-02-13T02:29:17.890Z,82.54
2023-02-13T02:35:35.749Z,82.59
2023-02-13T02:41:41.559Z,82.63
2023-02-13T02:48:03.526Z,82.64
2023-02-13T02:54:38.225Z,82.63
2023-02-13T03:00:58.863Z,82.75
2023-02-13T03:07:36.902Z,82.81
2023-02-13T03:14:12.983Z,82.71
2023-02-13T03:20:21.595Z,82.86
2023-02-13T03:26:53.700Z,82.27
2023-02-13T03:33:07.112Z,82.68
2023-02-13T03:39:09.978Z,82.82
2023-02-13T03:45:24.036Z,82.81
2023-02-13T03:50:27.336Z,82.52
2023-02-13T03:55:53.711Z,82.60
2023-02-13T04:00:59.350Z,82.77
2023-02-13T04:06:06.608Z,83.01
2023-02-13T04:11:17.433Z,82.92
2023-02-13T04:16:27.991Z,83.12
2023-02-13T04:21:33.232Z,82.93
2023-02-13T04:26:40.914Z,82.93
2023-02-13T04:31:42.133Z,82.90
2023-02-13T04:36:43.649Z,82.99
2023-02-13T04:41:45.192Z,82.95
2023-02-13T04:46:46.490Z,83.06
2023-02-13T04:51:47.810Z,82.91
2023-02-13T04:56:49.283Z,82.99
2023-02-13T05:01:50.546Z,83.03
2023-02-13T05:06:51.924Z,83.10
2023-02-13T05:11:53.807Z,83.19
2023-02-13T05:16:55.830Z,83.29
2023-02-13T05:22:15.479Z,83.30
2023-02-13T05:27:16.732Z,83.03
2023-02-13T05:32:17.940Z,83.07
2023-02-13T05:37:19.320Z,83.14
2023-02-13T05:42:20.685Z,83.25
2023-02-13T05:47:22.026Z,83.29
2023-02-13T05:52:23.563Z,83.44
2023-02-13T05:57:24.847Z,83.52
2023-02-13T06:02:26.081Z,83.51
2023-02-13T06:07:27.556Z,83.49
2023-02-13T06:12:28.959Z,83.40
2023-02-13T06:17:30.083Z,83.32
2023-02-13T06:22:31.161Z,83.22
2023-02-13T06:27:32.403Z,83.20
2023-02-13T06:32:33.594Z,83.15
2023-02-13T06:37:35.182Z,83.49
2023-02-13T06:42:36.395Z,86.54
2023-02-13T06:47:42.199Z,87.44
2023-02-13T06:52:51.630Z,84.02
2023-02-13T06:57:52.806Z,82.30
2023-02-13T07:02:54.422Z,80.64
2023-02-13T07:07:56.563Z,79.65
2023-02-13T07:13:05.650Z,79.76
2023-02-13T07:18:08.151Z,79.34
2023-02-13T07:23:10.159Z,77.99
2023-02-13T07:28:11.668Z,76.80
2023-02-13T07:33:13.701Z,76.48
2023-02-13T07:38:15.849Z,76.65
2023-02-13T07:43:17.289Z,77.21
2023-02-13T07:48:18.445Z,77.46
2023-02-13T07:53:19.793Z,77.57
2023-02-13T07:58:21.030Z,77.56
2023-02-13T08:03:22.528Z,77.55
2023-02-13T08:08:23.779Z,78.23
2023-02-13T08:13:25.310Z,78.24
2023-02-13T08:18:26.856Z,78.53
2023-02-13T08:23:28.396Z,78.66
2023-02-13T08:28:29.671Z,79.02
2023-02-13T08:33:31.144Z,79.44
2023-02-13T08:38:37.105Z,79.71
2023-02-13T08:43:38.449Z,79.81
2023-02-13T08:48:39.803Z,79.65
2023-02-13T08:53:42.005Z,79.56
2023-02-13T08:58:43.502Z,79.65
2023-02-13T09:03:44.707Z,79.82
2023-02-13T09:08:46.050Z,79.87
2023-02-13T09:13:47.848Z,79.71
2023-02-13T09:18:50.477Z,79.72
2023-02-13T09:23:52.539Z,79.77
2023-02-13T09:28:54.119Z,79.99
2023-02-13T09:33:55.321Z,80.09
2023-02-13T09:38:57.294Z,80.03
2023-02-13T09:44:05.282Z,79.92
2023-02-13T09:49:15.247Z,80.21
2023-02-13T09:54:19.684Z,80.41
2023-02-13T09:59:50.355Z,81.01
2023-02-13T10:05:29.478Z,81.25
2023-02-13T10:10:46.256Z,81.23
2023-02-13T10:15:58.154Z,81.66
2023-02-13T10:21:03.047Z,82.10
2023-02-13T10:27:04.144Z,82.09
2023-02-13T10:33:07.866Z,82.20
2023-02-13T10:39:31.904Z,82.31
2023-02-13T10:46:07.570Z,82.18
2023-02-13T10:52:22.316Z,82.46
2023-02-13T10:58:11.587Z,81.83
2023-02-13T11:03:22.406Z,81.61
2023-02-13T11:08:32.268Z,81.51
2023-02-13T11:13:33.491Z,81.10
2023-02-13T11:18:38.979Z,81.26
2023-02-13T11:23:44.463Z,80.98
2023-02-13T11:29:04.558Z,80.66
2023-02-13T11:34:21.363Z,80.94
2023-02-13T11:39:26.312Z,81.18
2023-02-13T11:44:30.540Z,81.29
2023-02-13T11:49:35.442Z,81.52
2023-02-13T11:54:42.532Z,81.78
2023-02-13T11:59:45.253Z,81.64
2023-02-13T12:04:51.424Z,81.21
2023-02-13T12:09:54.582Z,81.12
2023-02-13T12:14:56.917Z,80.82
2023-02-13T12:19:58.997Z,80.95
2023-02-13T12:25:32.726Z,81.21
2023-02-13T12:31:07.914Z,81.48
2023-02-13T12:36:26.826Z,81.74
2023-02-13T12:41:54.022Z,81.93
2023-02-13T12:47:04.173Z,81.70
2023-02-13T12:52:30.245Z,81.63
2023-02-13T12:57:53.628Z,81.68
2023-02-13T13:11:51.169Z,82.05
2023-02-13T13:18:17.825Z,82.28
2023-02-13T13:24:21.857Z,82.36
2023-02-13T13:30:45.718Z,82.18
2023-02-13T13:36:33.093Z,82.11
2023-02-13T13:42:03.447Z,82.28
2023-02-13T13:47:16.654Z,82.24
2023-02-13T13:52:23.474Z,82.34
2023-02-13T13:57:56.578Z,82.23
2023-02-13T14:02:58.058Z,82.22
2023-02-13T14:08:03.579Z,82.01
2023-02-13T14:13:07.429Z,81.67
2023-02-13T14:18:54.700Z,81.09
2023-02-13T14:25:15.807Z,81.27
2023-02-13T14:31:18.167Z,81.18
2023-02-13T14:36:22.652Z,81.07
2023-02-13T14:41:53.575Z,80.65
2023-02-13T14:47:57.167Z,80.85
2023-02-13T14:54:27.051Z,80.83
2023-02-13T15:00:48.477Z,80.59
2023-02-13T15:07:23.589Z,80.56
2023-02-13T15:13:44.889Z,80.75
2023-02-13T15:20:06.053Z,80.60
2023-02-13T15:26:20.109Z,80.29
2023-02-13T15:31:23.598Z,80.20
2023-02-13T15:36:33.379Z,80.23
2023-02-13T15:41:38.276Z,80.17
2023-02-13T15:46:39.589Z,80.03
2023-02-13T15:51:41.393Z,80.08
2023-02-13T15:56:45.161Z,80.22
2023-02-13T16:01:47.094Z,80.15
2023-02-13T16:06:52.164Z,80.25
2023-02-13T16:11:57.991Z,80.32
2023-02-13T16:17:17.687Z,80.26
2023-02-13T16:22:50.427Z,80.27
2023-02-13T16:27:58.278Z,80.22
2023-02-13T16:33:51.923Z,80.25
2023-02-13T16:40:18.890Z,80.14
2023-02-13T16:46:34.840Z,80.09
2023-02-13T16:52:35.875Z,80.04
2023-02-13T16:58:17.486Z,79.96
2023-02-13T17:04:18.819Z,79.98
2023-02-13T17:09:40.019Z,80.07
2023-02-13T17:14:41.809Z,80.56
2023-02-13T17:19:43.812Z,80.73
2023-02-13T17:24:45.228Z,80.97
2023-02-13T17:29:46.852Z,80.97
2023-02-13T17:34:51.708Z,80.94
2023-02-13T17:39:54.124Z,81.05
2023-02-13T17:44:57.873Z,81.07
2023-02-13T17:50:08.771Z,80.94
2023-02-13T17:55:22.203Z,81.29
2023-02-13T18:00:27.510Z,81.49
2023-02-13T18:05:29.171Z,81.60
2023-02-13T18:10:33.501Z,81.77
2023-02-13T18:15:39.794Z,82.02
2023-02-13T18:20:41.871Z,81.65
2023-02-13T18:25:43.447Z,81.95
2023-02-13T18:30:45.064Z,81.85
2023-02-13T18:35:46.478Z,82.34
2023-02-13T18:40:47.732Z,82.44
2023-02-13T18:45:49.250Z,82.16
2023-02-13T18:50:50.518Z,82.41
2023-02-13T18:56:03.133Z,82.40
2023-02-13T19:01:09.711Z,82.26
2023-02-13T19:06:13.201Z,82.23
2023-02-13T19:11:16.835Z,82.39
2023-02-13T19:16:19.246Z,82.35
2023-02-13T19:21:23.552Z,81.99
2023-02-13T19:26:26.724Z,81.96
2023-02-13T19:31:30.166Z,82.09
2023-02-13T19:36:32.023Z,82.17
2023-02-13T19:41:33.364Z,82.03
2023-02-13T19:46:35.544Z,82.20
2023-02-13T19:51:37.142Z,82.31
2023-02-13T19:56:47.233Z,82.31
2023-02-13T20:01:51.795Z,82.34
2023-02-13T20:06:57.821Z,82.42
2023-02-13T20:11:59.394Z,82.30
2023-02-13T20:17:01.153Z,82.69
2023-02-13T20:22:02.642Z,82.52
2023-02-13T20:27:03.816Z,82.20
2023-02-13T20:32:05.274Z,82.30
2023-02-13T20:37:07.223Z,82.39
2023-02-13T20:42:08.728Z,82.19
2023-02-13T20:47:10.304Z,82.03
2023-02-13T20:52:11.666Z,82.12
2023-02-13T20:57:14.613Z,82.15
2023-02-13T21:02:18.979Z,82.20
2023-02-13T21:07:20.487Z,82.09
2023-02-13T21:12:21.813Z,82.12
2023-02-13T21:18:23.038Z,82.00
2023-02-13T21:24:44.270Z,81.78
2023-02-13T21:30:06.567Z,81.91
2023-02-13T21:35:08.965Z,81.86
2023-02-13T21:40:10.673Z,81.69
2023-02-13T21:46:11.700Z,81.78
2023-02-13T21:52:32.673Z,81.79
2023-02-13T21:57:53.931Z,81.93
2023-02-13T22:03:55.093Z,82.01
2023-02-13T22:10:16.227Z,81.96
2023-02-13T22:16:19.886Z,81.56
2023-02-13T22:22:40.985Z,81.43
2023-02-13T22:29:02.009Z,81.60
2023-02-13T22:35:23.038Z,81.72
2023-02-13T22:41:44.070Z,81.65
2023-02-13T22:48:05.019Z,81.75
2023-02-13T22:54:25.975Z,82.05
2023-02-13T23:00:29.562Z,82.12
2023-02-13T23:06:50.683Z,81.90
2023-02-13T23:12:31.062Z,81.83
2023-02-13T23:17:51.591Z,82.00
2023-02-13T23:22:56.208Z,82.35
2023-02-13T23:27:57.529Z,82.29
2023-02-13T23:32:59.764Z,82.46
2023-02-13T23:38:01.171Z,82.60
2023-02-13T23:43:02.549Z,82.71
2023-02-13T23:48:04.407Z,82.46
2023-02-13T23:53:05.591Z,82.11
2023-02-13T23:58:06.999Z,82.22
